Los Ebanos, TX

11:21 PM CDT en Agosto 20, 2014 (GMT -0500)
South Texas | Change Station
CLOSE
Current Station
Estación meteorológica personal
Location: Mission, TX
Altura: 236 ft
Estaciones meteorológicas cercanas

Alt 236 ft 26.32 °N, 98.46 °W | Updated 3 seconds ago

Mostly Cloudy
Muy nublado
81.9 ° F
Sensación térmica 88 ° F
N
12.7
Viento Variable Viento desde SSE
Gusts 12.7 mph

Hoy
Alta -- | Baja -- ° F
--% Posibilidad de precipitaciones
Ayer
Alta -- | Baja -- ° F
Precip. -- pul
7:08 AM 8:05 PM
Creciente menguante, 17% visible
Presión 29.97 pul
Visibilidad 10.0 Millas
Nubes Muy nublado 2400 ft
Muy nublado 2900 ft
Índice de calor 88 ° F
Punto de rocío 75 ° F
Humedad 79%
Precipitaciones 0.00 pul
Espesor de la nieve No disponible.
UV 0.0 de una escala de 12
Polen 7.60 de una escala de 12
Ozono Buena
PM2.5 Moderada
Flu Activity No disponible.
METAR KMFE 210353Z 15013G22KT 10SM BKN024 BKN029 29/25 A2997 RMK AO2 PK WND 15027/0303 SLP148 T02940250

More Conditions Fewer Conditions

Presión 29.97 pul
Visibilidad 10.0 Millas
Nubes Muy nublado 2400 ft
Muy nublado 2900 ft
Índice de calor 88 ° F
Punto de rocío 75 ° F
Humedad 79%
Precipitaciones 0.00 pul
Espesor de la nieve No disponible.
UV 0.0 de una escala de 12
Polen 7.60 de una escala de 12
Ozono Buena
PM2.5 Moderada
Flu Activity No disponible.
METAR KMFE 210353Z 15013G22KT 10SM BKN024 BKN029 29/25 A2997 RMK AO2 PK WND 15027/0303 SLP148 T02940250

More Conditions Fewer Conditions

10-Day Weather Forecast

Almanac

Astronomía

Aug. 20, 2014 Salida Puesta
Hora real 7:08 AM CDT 8:05 PM CDT
Crepúsculo civil 6:44 AM CDT 8:29 PM CDT
Crepúsculo náutico 6:15 AM CDT 8:57 PM CDT
Crepúsculo astronómico 5:47 AM CDT 9:26 PM CDT
Luna 2:59 AM CDT (8/20) 4:41 PM CDT (8/20)
Horas de luz 13h 44m
Horas de luz
12h 56m
Tomorrow will be 1m 25s shorter.
Creciente menguante, 17% of the Moon is Illuminated
Ago 21
Creciente menguante
Ago 25
Nueva
Sep 2
Cuarto creciente
Sep 8
Luna llena
Sep 15
Cuarto menguante

Extremos de hoy

Máximos del estado Bajos del estado

Community

WunderPhotos

Upload Photos

1,745,852 ¡fotos cargadas!

Nearby

Calidad del aire

  Calidad del aire Índice AQ Contaminante
Ayer Moderada
PM2.5
Ayer Buena
OZONE
Real Moderada
PM2.5
Real Buena
OZONE
Miércoles Buena
PM10
Miércoles Buena
OZONE
Jueves Buena
PM10
Jueves Buena
OZONE
Viernes Buena
PM10
Viernes Buena
OZONE
Sábado Buena
PM10
Sábado Buena
OZONE

Grosos de nieve

Estación Profundido Altura
No tenemos constancia de nieve nueva.

Actividad de terremotos

Ciudad Distance Mag. Tiempo y dato
No hay informes recientes de la actividad sísmica.
Magnitud mínima muestra es 2,5.

Temperaturas de aguas costeras

Lugar Temperatura
Sin partes meteorológicos de las estaciones

Estaciones meteorológicas cercanas